sensor_id;sensor_type;location;lat;lon;timestamp;pressure;altitude;pressure_sealevel;temperature;humidity
12468;BME280;57850;52.922;6.256;2023-04-08T00:02:17;102775.78;;;8.72;100.00
12468;BME280;57850;52.922;6.256;2023-04-08T00:04:44;102777.53;;;8.67;100.00
12468;BME280;57850;52.922;6.256;2023-04-08T00:07:10;102784.44;;;8.54;100.00
12468;BME280;57850;52.922;6.256;2023-04-08T00:09:37;102780.13;;;8.66;100.00
12468;BME280;57850;52.922;6.256;2023-04-08T00:12:05;102774.06;;;8.70;100.00
12468;BME280;57850;52.922;6.256;2023-04-08T00:14:32;102791.38;;;8.60;100.00
12468;BME280;57850;52.922;6.256;2023-04-08T00:16:58;102779.25;;;8.60;100.00
12468;BME280;57850;52.922;6.256;2023-04-08T00:19:25;102782.69;;;8.53;100.00
12468;BME280;57850;52.922;6.256;2023-04-08T00:21:52;102781.78;;;8.45;100.00
12468;BME280;57850;52.922;6.256;2023-04-08T00:24:18;102783.50;;;8.46;100.00
12468;BME280;57850;52.922;6.256;2023-04-08T00:26:45;102780.88;;;8.37;100.00
12468;BME280;57850;52.922;6.256;2023-04-08T00:29:13;102781.72;;;8.32;100.00
12468;BME280;57850;52.922;6.256;2023-04-08T00:31:39;102782.59;;;8.31;100.00
12468;BME280;57850;52.922;6.256;2023-04-08T00:34:06;102779.09;;;8.30;100.00
12468;BME280;57850;52.922;6.256;2023-04-08T00:36:33;102784.31;;;8.30;100.00
12468;BME280;57850;52.922;6.256;2023-04-08T00:39:00;102785.19;;;8.34;100.00
12468;BME280;57850;52.922;6.256;2023-04-08T00:41:28;102788.59;;;8.25;100.00
12468;BME280;57850;52.922;6.256;2023-04-08T00:43:55;102795.47;;;8.08;100.00
12468;BME280;57850;52.922;6.256;2023-04-08T00:46:23;102797.09;;;7.91;100.00
12468;BME280;57850;52.922;6.256;2023-04-08T00:48:51;102794.59;;;8.09;100.00
12468;BME280;57850;52.922;6.256;2023-04-08T00:51:17;102795.41;;;8.03;100.00
12468;BME280;57850;52.922;6.256;2023-04-08T00:53:44;102788.50;;;8.07;100.00
12468;BME280;57850;52.922;6.256;2023-04-08T00:56:10;102792.78;;;8.02;100.00
12468;BME280;57850;52.922;6.256;2023-04-08T00:58:37;102793.69;;;8.05;100.00
12468;BME280;57850;52.922;6.256;2023-04-08T01:01:06;102797.09;;;7.94;100.00
12468;BME280;57850;52.922;6.256;2023-04-08T01:03:41;102798.91;;;8.04;100.00
12468;BME280;57850;52.922;6.256;2023-04-08T01:06:15;102786.75;;;7.98;100.00
12468;BME280;57850;52.922;6.256;2023-04-08T01:08:45;102788.47;;;7.98;100.00
12468;BME280;57850;52.922;6.256;2023-04-08T01:11:12;102794.41;;;7.83;100.00
12468;BME280;57850;52.922;6.256;2023-04-08T01:13:41;102798.69;;;7.74;100.00
12468;BME280;57850;52.922;6.256;2023-04-08T01:16:10;102791.75;;;7.70;100.00
12468;BME280;57850;52.922;6.256;2023-04-08T01:18:40;102789.13;;;7.68;100.00
12468;BME280;57850;52.922;6.256;2023-04-08T01:21:07;102786.53;;;7.68;100.00
12468;BME280;57850;52.922;6.256;2023-04-08T01:23:40;102790.84;;;7.66;100.00
12468;BME280;57850;52.922;6.256;2023-04-08T01:26:12;102801.16;;;7.54;100.00
12468;BME280;57850;52.922;6.256;2023-04-08T01:28:48;102793.34;;;7.52;100.00
12468;BME280;57850;52.922;6.256;2023-04-08T01:31:17;102789.91;;;7.53;100.00
12468;BME280;57850;52.922;6.256;2023-04-08T01:33:45;102789.88;;;7.52;100.00
12468;BME280;57850;52.922;6.256;2023-04-08T01:36:13;102792.41;;;7.41;100.00
12468;BME280;57850;52.922;6.256;2023-04-08T01:38:41;102795.75;;;7.28;100.00
12468;BME280;57850;52.922;6.256;2023-04-08T01:41:08;102788.06;;;7.39;100.00
12468;BME280;57850;52.922;6.256;2023-04-08T01:43:39;102788.94;;;7.41;100.00
12468;BME280;57850;52.922;6.256;2023-04-08T01:46:07;102792.34;;;7.37;100.00
12468;BME280;57850;52.922;6.256;2023-04-08T01:48:36;102798.34;;;7.28;100.00
12468;BME280;57850;52.922;6.256;2023-04-08T01:51:04;102795.69;;;7.24;100.00
12468;BME280;57850;52.922;6.256;2023-04-08T01:53:31;102787.09;;;7.29;100.00
12468;BME280;57850;52.922;6.256;2023-04-08T01:56:03;102786.25;;;7.33;100.00
12468;BME280;57850;52.922;6.256;2023-04-08T01:58:36;102780.22;;;7.33;100.00
12468;BME280;57850;52.922;6.256;2023-04-08T02:01:05;102788.00;;;7.33;100.00
12468;BME280;57850;52.922;6.256;2023-04-08T02:03:36;102783.66;;;7.32;100.00
12468;BME280;57850;52.922;6.256;2023-04-08T02:06:04;102776.72;;;7.31;100.00
12468;BME280;57850;52.922;6.256;2023-04-08T02:08:33;102779.31;;;7.29;100.00
12468;BME280;57850;52.922;6.256;2023-04-08T02:11:00;102777.50;;;7.24;100.00
12468;BME280;57850;52.922;6.256;2023-04-08T02:13:27;102772.34;;;7.25;100.00
12468;BME280;57850;52.922;6.256;2023-04-08T02:15:57;102785.28;;;7.19;100.00
12468;BME280;57850;52.922;6.256;2023-04-08T02:18:31;102783.53;;;7.17;100.00
12468;BME280;57850;52.922;6.256;2023-04-08T02:21:05;102779.13;;;7.10;100.00
12468;BME280;57850;52.922;6.256;2023-04-08T02:23:36;102779.16;;;7.14;100.00
12468;BME280;57850;52.922;6.256;2023-04-08T02:26:07;102796.38;;;7.03;100.00
12468;BME280;57850;52.922;6.256;2023-04-08T02:28:38;102785.16;;;7.04;100.00
12468;BME280;57850;52.922;6.256;2023-04-08T02:31:08;102785.13;;;7.03;100.00
12468;BME280;57850;52.922;6.256;2023-04-08T02:33:39;102788.53;;;6.98;100.00
12468;BME280;57850;52.922;6.256;2023-04-08T02:36:07;102787.59;;;6.89;100.00
12468;BME280;57850;52.922;6.256;2023-04-08T02:38:34;102789.28;;;6.85;100.00
12468;BME280;57850;52.922;6.256;2023-04-08T02:41:01;102778.06;;;6.88;100.00
12468;BME280;57850;52.922;6.256;2023-04-08T02:43:27;102781.56;;;6.91;100.00
12468;BME280;57850;52.922;6.256;2023-04-08T02:45:56;102780.63;;;6.86;100.00
12468;BME280;57850;52.922;6.256;2023-04-08T02:48:24;102781.56;;;6.91;100.00
12468;BME280;57850;52.922;6.256;2023-04-08T02:50:51;102777.19;;;6.87;100.00
12468;BME280;57850;52.922;6.256;2023-04-08T02:53:18;102775.50;;;6.92;100.00
12468;BME280;57850;52.922;6.256;2023-04-08T02:55:45;102779.84;;;6.93;100.00
12468;BME280;57850;52.922;6.256;2023-04-08T02:58:11;102790.81;;;6.67;100.00
12468;BME280;57850;52.922;6.256;2023-04-08T03:00:38;102785.69;;;6.73;100.00
12468;BME280;57850;52.922;6.256;2023-04-08T03:03:04;102804.41;;;6.49;100.00
12468;BME280;57850;52.922;6.256;2023-04-08T03:05:31;102807.03;;;6.52;100.00
12468;BME280;57850;52.922;6.256;2023-04-08T03:08:00;102799.41;;;6.63;100.00
12468;BME280;57850;52.922;6.256;2023-04-08T03:10:26;102786.50;;;6.69;100.00
12468;BME280;57850;52.922;6.256;2023-04-08T03:12:53;102787.34;;;6.66;100.00
12468;BME280;57850;52.922;6.256;2023-04-08T03:15:19;102790.75;;;6.62;100.00
12468;BME280;57850;52.922;6.256;2023-04-08T03:17:46;102790.69;;;6.55;100.00
12468;BME280;57850;52.922;6.256;2023-04-08T03:20:13;102788.13;;;6.58;100.00
12468;BME280;57850;52.922;6.256;2023-04-08T03:22:39;102783.00;;;6.64;100.00
12468;BME280;57850;52.922;6.256;2023-04-08T03:25:08;102780.34;;;6.58;100.00
12468;BME280;57850;52.922;6.256;2023-04-08T03:27:35;102789.88;;;6.60;100.00
12468;BME280;57850;52.922;6.256;2023-04-08T03:30:03;102788.88;;;6.52;100.00
12468;BME280;57850;52.922;6.256;2023-04-08T03:32:29;102786.22;;;6.44;100.00
12468;BME280;57850;52.922;6.256;2023-04-08T03:34:56;102784.53;;;6.50;100.00
12468;BME280;57850;52.922;6.256;2023-04-08T03:37:22;102786.28;;;6.51;100.00
12468;BME280;57850;52.922;6.256;2023-04-08T03:39:49;102784.63;;;6.56;100.00
12468;BME280;57850;52.922;6.256;2023-04-08T03:42:17;102793.16;;;6.47;100.00
12468;BME280;57850;52.922;6.256;2023-04-08T03:44:44;102802.63;;;6.43;100.00
12468;BME280;57850;52.922;6.256;2023-04-08T03:47:10;102798.34;;;6.47;100.00
12468;BME280;57850;52.922;6.256;2023-04-08T03:49:37;102800.88;;;6.42;100.00
12468;BME280;57850;52.922;6.256;2023-04-08T03:52:04;102798.28;;;6.41;100.00
12468;BME280;57850;52.922;6.256;2023-04-08T03:54:30;102797.44;;;6.43;100.00
12468;BME280;57850;52.922;6.256;2023-04-08T03:56:57;102795.78;;;6.50;100.00
12468;BME280;57850;52.922;6.256;2023-04-08T03:59:24;102787.97;;;6.47;100.00
12468;BME280;57850;52.922;6.256;2023-04-08T04:01:51;102787.13;;;6.48;100.00
12468;BME280;57850;52.922;6.256;2023-04-08T04:04:18;102792.22;;;6.39;100.00
12468;BME280;57850;52.922;6.256;2023-04-08T04:06:44;102806.53;;;6.13;100.00
12468;BME280;57850;52.922;6.256;2023-04-08T04:09:11;102797.25;;;6.28;100.00
12468;BME280;57850;52.922;6.256;2023-04-08T04:11:39;102794.59;;;6.24;100.00
12468;BME280;57850;52.922;6.256;2023-04-08T04:14:05;102807.44;;;6.13;100.00
12468;BME280;57850;52.922;6.256;2023-04-08T04:16:34;102813.47;;;6.14;100.00
12468;BME280;57850;52.922;6.256;2023-04-08T04:19:00;102816.72;;;5.99;100.00
12468;BME280;57850;52.922;6.256;2023-04-08T04:21:27;102820.25;;;6.06;100.00
12468;BME280;57850;52.922;6.256;2023-04-08T04:23:53;102813.44;;;6.11;100.00
12468;BME280;57850;52.922;6.256;2023-04-08T04:26:20;102817.88;;;6.21;100.00
12468;BME280;57850;52.922;6.256;2023-04-08T04:28:46;102819.47;;;6.10;100.00
12468;BME280;57850;52.922;6.256;2023-04-08T04:31:17;102809.84;;;6.03;100.00
12468;BME280;57850;52.922;6.256;2023-04-08T04:33:46;102834.53;;;5.81;100.00
12468;BME280;57850;52.922;6.256;2023-04-08T04:36:13;102823.56;;;5.94;100.00
12468;BME280;57850;52.922;6.256;2023-04-08T04:38:40;102823.59;;;5.97;100.00
12468;BME280;57850;52.922;6.256;2023-04-08T04:41:07;102839.78;;;5.84;100.00
12468;BME280;57850;52.922;6.256;2023-04-08T04:43:33;102828.81;;;6.02;100.00
12468;BME280;57850;52.922;6.256;2023-04-08T04:46:00;102822.81;;;6.01;100.00
12468;BME280;57850;52.922;6.256;2023-04-08T04:48:28;102824.56;;;6.05;100.00
12468;BME280;57850;52.922;6.256;2023-04-08T04:50:56;102824.66;;;6.10;100.00
12468;BME280;57850;52.922;6.256;2023-04-08T04:53:23;102836.59;;;6.02;100.00
12468;BME280;57850;52.922;6.256;2023-04-08T04:55:50;102828.88;;;6.05;100.00
12468;BME280;57850;52.922;6.256;2023-04-08T04:58:17;102836.69;;;6.08;100.00
12468;BME280;57850;52.922;6.256;2023-04-08T05:00:44;102836.88;;;6.21;100.00
12468;BME280;57850;52.922;6.256;2023-04-08T05:03:10;102838.59;;;6.21;100.00
12468;BME280;57850;52.922;6.256;2023-04-08T05:05:37;102842.00;;;6.15;100.00
12468;BME280;57850;52.922;6.256;2023-04-08T05:08:06;102851.97;;;5.88;100.00
12468;BME280;57850;52.922;6.256;2023-04-08T05:10:32;102844.41;;;6.05;100.00
12468;BME280;57850;52.922;6.256;2023-04-08T05:12:59;102848.72;;;6.01;100.00
12468;BME280;57850;52.922;6.256;2023-04-08T05:15:25;102864.69;;;5.77;100.00
12468;BME280;57850;52.922;6.256;2023-04-08T05:17:52;102853.72;;;5.90;100.00
12468;BME280;57850;52.922;6.256;2023-04-08T05:20:18;102855.47;;;5.93;100.00
12468;BME280;57850;52.922;6.256;2023-04-08T05:22:45;102863.19;;;5.88;100.00
12468;BME280;57850;52.922;6.256;2023-04-08T05:25:13;102862.16;;;5.80;100.00
12468;BME280;57850;52.922;6.256;2023-04-08T05:27:39;102853.81;;;5.97;100.00
12468;BME280;57850;52.922;6.256;2023-04-08T05:30:07;102855.56;;;5.99;100.00
12468;BME280;57850;52.922;6.256;2023-04-08T05:32:34;102854.03;;;6.12;100.00
12468;BME280;57850;52.922;6.256;2023-04-08T05:35:01;102858.41;;;6.17;100.00
12468;BME280;57850;52.922;6.256;2023-04-08T05:37:28;102848.19;;;6.25;100.00
12468;BME280;57850;52.922;6.256;2023-04-08T05:39:54;102826.84;;;6.45;100.00
12468;BME280;57850;52.922;6.256;2023-04-08T05:42:22;102831.38;;;6.60;100.00
12468;BME280;57850;52.922;6.256;2023-04-08T05:44:49;102830.50;;;6.61;100.00
12468;BME280;57850;52.922;6.256;2023-04-08T05:47:15;102816.03;;;6.81;100.00
12468;BME280;57850;52.922;6.256;2023-04-08T05:49:42;102812.69;;;6.91;100.00
12468;BME280;57850;52.922;6.256;2023-04-08T05:52:08;102798.22;;;7.13;100.00
12468;BME280;57850;52.922;6.256;2023-04-08T05:54:35;102792.22;;;7.22;100.00
12468;BME280;57850;52.922;6.256;2023-04-08T05:57:02;102795.78;;;7.30;100.00
12468;BME280;57850;52.922;6.256;2023-04-08T05:59:30;102791.44;;;7.33;100.00
12468;BME280;57850;52.922;6.256;2023-04-08T06:01:56;102792.44;;;7.49;100.00
12468;BME280;57850;52.922;6.256;2023-04-08T06:04:23;102794.25;;;7.58;100.00
12468;BME280;57850;52.922;6.256;2023-04-08T06:06:49;102785.63;;;7.60;100.00
12468;BME280;57850;52.922;6.256;2023-04-08T06:09:16;102788.25;;;7.68;100.00
12468;BME280;57850;52.922;6.256;2023-04-08T06:11:42;102790.09;;;7.79;100.00
12468;BME280;57850;52.922;6.256;2023-04-08T06:14:11;102788.41;;;7.90;100.00
12468;BME280;57850;52.922;6.256;2023-04-08T06:16:39;102784.97;;;7.94;100.00
12468;BME280;57850;52.922;6.256;2023-04-08T06:19:05;102785.03;;;8.06;100.00
12468;BME280;57850;52.922;6.256;2023-04-08T06:21:32;102793.72;;;8.08;100.00
12468;BME280;57850;52.922;6.256;2023-04-08T06:23:58;102792.88;;;8.16;100.00
12468;BME280;57850;52.922;6.256;2023-04-08T06:26:25;102797.25;;;8.20;100.00
12468;BME280;57850;52.922;6.256;2023-04-08T06:28:52;102807.56;;;8.09;100.00
12468;BME280;57850;52.922;6.256;2023-04-08T06:31:18;102811.09;;;8.17;100.00
12468;BME280;57850;52.922;6.256;2023-04-08T06:33:46;102824.03;;;8.06;100.00
12468;BME280;57850;52.922;6.256;2023-04-08T06:36:13;102816.28;;;8.13;100.00
12468;BME280;57850;52.922;6.256;2023-04-08T06:38:39;102826.66;;;8.13;100.00
12468;BME280;57850;52.922;6.256;2023-04-08T06:41:07;102828.38;;;8.12;100.00
12468;BME280;57850;52.922;6.256;2023-04-08T06:43:34;102819.88;;;8.31;100.00
12468;BME280;57850;52.922;6.256;2023-04-08T06:46:01;102834.66;;;8.46;100.00
12468;BME280;57850;52.922;6.256;2023-04-08T06:48:28;102843.31;;;8.36;100.00
12468;BME280;57850;52.922;6.256;2023-04-08T06:50:56;102832.06;;;8.46;100.00
12468;BME280;57850;52.922;6.256;2023-04-08T06:53:24;102827.75;;;8.52;100.00
12468;BME280;57850;52.922;6.256;2023-04-08T06:55:51;102815.72;;;8.82;100.00
12468;BME280;57850;52.922;6.256;2023-04-08T06:58:17;102814.06;;;8.99;100.00
12468;BME280;57850;52.922;6.256;2023-04-08T07:00:44;102822.75;;;9.16;100.00
12468;BME280;57850;52.922;6.256;2023-04-08T07:03:11;102819.28;;;9.17;100.00
12468;BME280;57850;52.922;6.256;2023-04-08T07:05:38;102821.00;;;9.27;100.00
12468;BME280;57850;52.922;6.256;2023-04-08T07:08:07;102823.63;;;9.35;100.00
12468;BME280;57850;52.922;6.256;2023-04-08T07:10:35;102827.97;;;9.36;100.00
12468;BME280;57850;52.922;6.256;2023-04-08T07:13:02;102827.97;;;9.46;100.00
12468;BME280;57850;52.922;6.256;2023-04-08T07:15:28;102826.22;;;9.50;100.00
12468;BME280;57850;52.922;6.256;2023-04-08T07:17:55;102841.88;;;9.41;100.00
12468;BME280;57850;52.922;6.256;2023-04-08T07:20:23;102840.13;;;9.50;100.00
12468;BME280;57850;52.922;6.256;2023-04-08T07:22:50;102838.41;;;9.58;100.00
12468;BME280;57850;52.922;6.256;2023-04-08T07:25:18;102838.41;;;9.77;100.00
12468;BME280;57850;52.922;6.256;2023-04-08T07:27:45;102845.34;;;9.75;100.00
12468;BME280;57850;52.922;6.256;2023-04-08T07:30:11;102852.28;;;9.82;100.00
12468;BME280;57850;52.922;6.256;2023-04-08T07:32:38;102858.38;;;9.81;100.00
12468;BME280;57850;52.922;6.256;2023-04-08T07:35:05;102852.28;;;9.92;100.00
12468;BME280;57850;52.922;6.256;2023-04-08T07:37:32;102852.25;;;10.03;100.00
12468;BME280;57850;52.922;6.256;2023-04-08T07:39:59;102862.72;;;10.16;100.00
12468;BME280;57850;52.922;6.256;2023-04-08T07:42:27;102859.19;;;10.36;100.00
12468;BME280;57850;52.922;6.256;2023-04-08T07:44:53;102872.19;;;10.46;100.00
12468;BME280;57850;52.922;6.256;2023-04-08T07:47:20;102881.78;;;10.46;100.00
12468;BME280;57850;52.922;6.256;2023-04-08T07:49:46;102885.22;;;10.57;100.00
12468;BME280;57850;52.922;6.256;2023-04-08T07:52:13;102900.91;;;10.40;100.00
12468;BME280;57850;52.922;6.256;2023-04-08T07:54:39;102897.44;;;10.44;100.00
12468;BME280;57850;52.922;6.256;2023-04-08T07:57:06;102892.06;;;10.82;100.00
12468;BME280;57850;52.922;6.256;2023-04-08T07:59:34;102895.44;;;11.11;100.00
12468;BME280;57850;52.922;6.256;2023-04-08T08:02:01;102900.44;;;11.45;100.00
12468;BME280;57850;52.922;6.256;2023-04-08T08:04:27;102903.84;;;11.53;100.00
12468;BME280;57850;52.922;6.256;2023-04-08T08:06:54;102909.09;;;11.50;100.00
12468;BME280;57850;52.922;6.256;2023-04-08T08:09:20;102917.81;;;11.55;100.00
12468;BME280;57850;52.922;6.256;2023-04-08T08:11:47;102911.59;;;11.72;100.00
12468;BME280;57850;52.922;6.256;2023-04-08T08:14:13;102893.53;;;12.40;100.00
12468;BME280;57850;52.922;6.256;2023-04-08T08:16:41;102895.56;;;12.88;100.00
12468;BME280;57850;52.922;6.256;2023-04-08T08:19:08;102900.59;;;13.05;100.00
12468;BME280;57850;52.922;6.256;2023-04-08T08:21:36;102925.69;;;12.51;100.00
12468;BME280;57850;52.922;6.256;2023-04-08T08:24:03;102936.34;;;12.34;100.00
12468;BME280;57850;52.922;6.256;2023-04-08T08:26:30;102929.22;;;12.48;100.00
12468;BME280;57850;52.922;6.256;2023-04-08T08:28:57;102920.31;;;12.63;100.00
12468;BME280;57850;52.922;6.256;2023-04-08T08:31:23;102899.34;;;13.31;100.00
12468;BME280;57850;52.922;6.256;2023-04-08T08:33:51;102915.09;;;13.33;100.00
12468;BME280;57850;52.922;6.256;2023-04-08T08:36:18;102918.63;;;13.30;100.00
12468;BME280;57850;52.922;6.256;2023-04-08T08:38:44;102924.13;;;13.12;100.00
12468;BME280;57850;52.922;6.256;2023-04-08T08:41:11;102926.44;;;13.33;100.00
12468;BME280;57850;52.922;6.256;2023-04-08T08:43:38;102928.16;;;13.36;100.00
12468;BME280;57850;52.922;6.256;2023-04-08T08:46:07;102915.44;;;13.67;100.00
12468;BME280;57850;52.922;6.256;2023-04-08T08:48:35;102912.69;;;13.74;100.00
12468;BME280;57850;52.922;6.256;2023-04-08T08:51:08;102914.50;;;13.71;100.00
12468;BME280;57850;52.922;6.256;2023-04-08T08:53:35;102910.50;;;14.01;100.00
12468;BME280;57850;52.922;6.256;2023-04-08T08:56:02;102909.34;;;14.17;100.00
12468;BME280;57850;52.922;6.256;2023-04-08T08:58:28;102902.00;;;14.35;100.00
12468;BME280;57850;52.922;6.256;2023-04-08T09:00:55;102889.06;;;14.71;100.00
12468;BME280;57850;52.922;6.256;2023-04-08T09:03:24;102894.13;;;14.80;100.00
12468;BME280;57850;52.922;6.256;2023-04-08T09:05:53;102882.53;;;15.28;100.00
12468;BME280;57850;52.922;6.256;2023-04-08T09:08:25;102890.00;;;15.08;100.00
12468;BME280;57850;52.922;6.256;2023-04-08T09:10:52;102879.22;;;15.20;100.00
12468;BME280;57850;52.922;6.256;2023-04-08T09:13:21;102857.13;;;15.66;100.00
12468;BME280;57850;52.922;6.256;2023-04-08T09:16:02;102850.16;;;15.97;100.00
12468;BME280;57850;52.922;6.256;2023-04-08T09:18:29;102866.84;;;15.62;100.00
12468;BME280;57850;52.922;6.256;2023-04-08T09:20:55;102852.16;;;16.20;100.00
12468;BME280;57850;52.922;6.256;2023-04-08T09:23:22;102860.16;;;15.83;100.00
12468;BME280;57850;52.922;6.256;2023-04-08T09:25:50;102906.66;;;15.09;100.00
12468;BME280;57850;52.922;6.256;2023-04-08T09:28:20;102908.31;;;15.13;100.00
12468;BME280;57850;52.922;6.256;2023-04-08T09:30:46;102894.38;;;15.47;100.00
12468;BME280;57850;52.922;6.256;2023-04-08T09:33:13;102847.13;;;16.74;100.00
12468;BME280;57850;52.922;6.256;2023-04-08T09:35:39;102832.34;;;16.97;100.00
12468;BME280;57850;52.922;6.256;2023-04-08T09:38:06;102809.34;;;17.81;100.00
12468;BME280;57850;52.922;6.256;2023-04-08T09:40:33;102782.19;;;18.49;100.00
12468;BME280;57850;52.922;6.256;2023-04-08T09:43:04;102820.75;;;17.57;100.00
12468;BME280;57850;52.922;6.256;2023-04-08T09:45:33;102842.06;;;17.23;100.00
12468;BME280;57850;52.922;6.256;2023-04-08T09:48:08;102827.34;;;17.42;100.00
12468;BME280;57850;52.922;6.256;2023-04-08T09:50:42;102809.59;;;17.74;100.00
12468;BME280;57850;52.922;6.256;2023-04-08T09:53:13;102768.97;;;18.72;100.00
12468;BME280;57850;52.922;6.256;2023-04-08T09:55:42;102790.38;;;17.95;100.00
12468;BME280;57850;52.922;6.256;2023-04-08T09:58:15;102764.78;;;18.43;100.00
12468;BME280;57850;52.922;6.256;2023-04-08T10:00:46;102704.28;;;19.63;100.00
12468;BME280;57850;52.922;6.256;2023-04-08T10:03:24;102695.97;;;19.91;100.00
12468;BME280;57850;52.922;6.256;2023-04-08T10:05:52;102699.31;;;19.75;100.00
12468;BME280;57850;52.922;6.256;2023-04-08T10:08:21;102694.09;;;20.11;100.00
12468;BME280;57850;52.922;6.256;2023-04-08T10:10:48;102693.75;;;20.00;100.00
12468;BME280;57850;52.922;6.256;2023-04-08T10:13:17;102674.00;;;20.45;100.00
12468;BME280;57850;52.922;6.256;2023-04-08T10:15:44;102656.28;;;20.98;100.00
12468;BME280;57850;52.922;6.256;2023-04-08T10:18:30;102668.84;;;20.95;100.00
12468;BME280;57850;52.922;6.256;2023-04-08T10:20:58;102665.19;;;20.97;100.00
12468;BME280;57850;52.922;6.256;2023-04-08T10:23:52;102649.88;;;21.02;100.00
12468;BME280;57850;52.922;6.256;2023-04-08T10:26:33;102628.28;;;21.60;100.00
12468;BME280;57850;52.922;6.256;2023-04-08T10:32:26;102676.41;;;20.49;100.00
12468;BME280;57850;52.922;6.256;2023-04-08T10:34:54;102664.22;;;20.81;100.00
12468;BME280;57850;52.922;6.256;2023-04-08T10:37:20;102624.94;;;22.05;100.00
12468;BME280;57850;52.922;6.256;2023-04-08T10:39:53;102629.91;;;21.95;100.00
12468;BME280;57850;52.922;6.256;2023-04-08T10:42:26;102602.78;;;22.35;100.00
12468;BME280;57850;52.922;6.256;2023-04-08T10:44:53;102582.72;;;22.75;100.00
12468;BME280;57850;52.922;6.256;2023-04-08T10:47:25;102558.94;;;23.30;100.00
12468;BME280;57850;52.922;6.256;2023-04-08T10:49:52;102584.25;;;22.79;100.00
12468;BME280;57850;52.922;6.256;2023-04-08T10:52:19;102583.56;;;22.76;100.00
12468;BME280;57850;52.922;6.256;2023-04-08T10:54:47;102621.84;;;22.12;100.00
12468;BME280;57850;52.922;6.256;2023-04-08T10:57:15;102649.16;;;21.50;100.00
12468;BME280;57850;52.922;6.256;2023-04-08T10:59:41;102669.28;;;21.21;100.00
12468;BME280;57850;52.922;6.256;2023-04-08T11:02:12;102713.22;;;20.38;100.00
12468;BME280;57850;52.922;6.256;2023-04-08T11:04:41;102758.78;;;19.26;100.00
12468;BME280;57850;52.922;6.256;2023-04-08T11:07:08;102781.22;;;18.96;100.00
12468;BME280;57850;52.922;6.256;2023-04-08T11:09:36;102789.03;;;18.78;100.00
12468;BME280;57850;52.922;6.256;2023-04-08T11:12:05;102805.03;;;18.27;100.00
12468;BME280;57850;52.922;6.256;2023-04-08T11:14:31;102797.97;;;18.27;100.00
12468;BME280;57850;52.922;6.256;2023-04-08T11:16:58;102798.91;;;18.51;100.00
12468;BME280;57850;52.922;6.256;2023-04-08T11:19:25;102787.78;;;18.64;100.00
12468;BME280;57850;52.922;6.256;2023-04-08T11:21:53;102786.47;;;18.53;100.00
12468;BME280;57850;52.922;6.256;2023-04-08T11:24:20;102780.59;;;18.90;100.00
12468;BME280;57850;52.922;6.256;2023-04-08T11:26:52;102802.66;;;18.44;100.00
12468;BME280;57850;52.922;6.256;2023-04-08T11:29:19;102768.22;;;19.12;100.00
12468;BME280;57850;52.922;6.256;2023-04-08T11:31:46;102796.78;;;18.60;100.00
12468;BME280;57850;52.922;6.256;2023-04-08T11:34:21;102764.94;;;19.27;100.00
12468;BME280;57850;52.922;6.256;2023-04-08T11:36:49;102778.28;;;19.04;100.00
12468;BME280;57850;52.922;6.256;2023-04-08T11:39:16;102813.53;;;18.11;100.00
12468;BME280;57850;52.922;6.256;2023-04-08T11:41:43;102808.06;;;18.41;100.00
12468;BME280;57850;52.922;6.256;2023-04-08T11:44:10;102790.38;;;18.88;100.00
12468;BME280;57850;52.922;6.256;2023-04-08T11:46:36;102785.78;;;18.93;100.00
12468;BME280;57850;52.922;6.256;2023-04-08T11:49:06;102711.56;;;20.54;100.00
12468;BME280;57850;52.922;6.256;2023-04-08T11:51:35;102725.38;;;20.23;100.00
12468;BME280;57850;52.922;6.256;2023-04-08T11:54:26;102781.03;;;19.22;100.00
12468;BME280;57850;52.922;6.256;2023-04-08T11:56:53;102792.16;;;19.09;100.00
12468;BME280;57850;52.922;6.256;2023-04-08T11:59:20;102716.16;;;20.51;100.00
12468;BME280;57850;52.922;6.256;2023-04-08T12:01:47;102748.63;;;19.98;100.00
12468;BME280;57850;52.922;6.256;2023-04-08T12:04:13;102732.09;;;20.12;100.00
12468;BME280;57850;52.922;6.256;2023-04-08T12:06:40;102778.91;;;19.31;100.00
12468;BME280;57850;52.922;6.256;2023-04-08T12:09:07;102784.72;;;19.40;100.00
12468;BME280;57850;52.922;6.256;2023-04-08T12:11:36;102794.53;;;19.16;100.00
12468;BME280;57850;52.922;6.256;2023-04-08T12:14:02;102783.97;;;19.15;100.00
12468;BME280;57850;52.922;6.256;2023-04-08T12:16:29;102793.41;;;19.22;100.00
12468;BME280;57850;52.922;6.256;2023-04-08T12:18:56;102768.72;;;19.43;100.00
12468;BME280;57850;52.922;6.256;2023-04-08T12:21:22;102770.19;;;19.50;100.00
12468;BME280;57850;52.922;6.256;2023-04-08T12:23:49;102736.22;;;20.38;100.00
12468;BME280;57850;52.922;6.256;2023-04-08T12:26:16;102748.03;;;19.92;100.00
12468;BME280;57850;52.922;6.256;2023-04-08T12:28:45;102767.78;;;19.64;100.00
12468;BME280;57850;52.922;6.256;2023-04-08T12:31:11;102740.41;;;20.04;100.00
12468;BME280;57850;52.922;6.256;2023-04-08T12:33:38;102729.31;;;20.52;100.00
12468;BME280;57850;52.922;6.256;2023-04-08T12:36:05;102762.94;;;19.74;100.00
12468;BME280;57850;52.922;6.256;2023-04-08T12:38:32;102773.75;;;19.49;100.00
12468;BME280;57850;52.922;6.256;2023-04-08T12:40:58;102788.78;;;19.05;100.00
12468;BME280;57850;52.922;6.256;2023-04-08T12:43:25;102830.56;;;18.52;100.00
12468;BME280;57850;52.922;6.256;2023-04-08T12:45:53;102805.78;;;19.00;100.00
12468;BME280;57850;52.922;6.256;2023-04-08T12:48:19;102817.00;;;18.83;100.00
12468;BME280;57850;52.922;6.256;2023-04-08T12:50:46;102851.88;;;17.98;100.00
12468;BME280;57850;52.922;6.256;2023-04-08T12:53:12;102842.31;;;18.44;100.00